Time;durP1;ratioP1;P1;durP2;ratioP2;P2;SDS_P1;SDS_P2;PMS_P1;PMS_P2;Temp;Humidity;BMP_temperature;BMP_pressure;BME280_temperature;BME280_humidity;BME280_pressure;Samples;Min_cycle;Max_cycle;Signal;HPM_P1;HPM_P2
2023/08/03 00:02:09;;;;;;;3.33;2.20;;;;;;;19.71;79.68;99488.08;1472071;88;21353;-79
2023/08/03 00:04:36;;;;;;;6.00;2.80;;;;;;;19.77;79.77;99495.73;1474295;88;21537;-78
2023/08/03 00:07:02;;;;;;;6.33;2.47;;;;;;;19.77;79.44;99493.87;1471763;88;22377;-79
2023/08/03 00:09:29;;;;;;;3.17;2.00;;;;;;;19.78;79.18;99489.31;1472049;88;21338;-79
2023/08/03 00:11:55;;;;;;;3.98;2.27;;;;;;;19.76;79.18;99488.19;1473020;88;22131;-78
2023/08/03 00:14:21;;;;;;;6.75;3.30;;;;;;;19.76;79.71;99488.71;1470506;88;21374;-79
2023/08/03 00:16:47;;;;;;;9.08;2.33;;;;;;;19.76;79.73;99491.40;1475693;88;21537;-78
2023/08/03 00:19:13;;;;;;;5.20;2.12;;;;;;;19.75;80.11;99487.09;1480491;88;21390;-79
2023/08/03 00:21:39;;;;;;;5.45;2.52;;;;;;;19.76;80.30;99493.55;1478663;88;21559;-79
2023/08/03 00:24:05;;;;;;;4.12;2.10;;;;;;;19.78;80.68;99494.68;1472353;88;21419;-78
2023/08/03 00:26:33;;;;;;;10.18;2.17;;;;;;;19.77;80.32;99491.19;1476934;88;21584;-79
2023/08/03 00:28:59;;;;;;;5.33;2.20;;;;;;;19.78;80.39;99491.47;1477320;88;21492;-79
2023/08/03 00:31:25;;;;;;;5.28;2.67;;;;;;;19.78;80.20;99492.00;1467416;88;21522;-78
2023/08/03 00:33:51;;;;;;;5.40;2.50;;;;;;;19.72;80.20;99492.39;1474571;88;21397;-78
2023/08/03 00:36:17;;;;;;;5.28;2.85;;;;;;;19.69;80.57;99489.36;1456776;88;22270;-79
2023/08/03 00:38:43;;;;;;;4.87;2.33;;;;;;;19.67;80.85;99498.16;1477074;88;21404;-80
2023/08/03 00:41:10;;;;;;;3.98;2.55;;;;;;;19.61;80.64;99506.56;1472856;88;21612;-77
2023/08/03 00:43:36;;;;;;;4.33;2.33;;;;;;;19.57;81.43;99501.38;1468440;88;21405;-79
2023/08/03 00:46:03;;;;;;;6.63;2.47;;;;;;;19.53;81.64;99497.49;1472240;88;21545;-79
2023/08/03 00:48:29;;;;;;;7.58;2.50;;;;;;;19.52;81.79;99499.89;1474201;88;21412;-79
2023/08/03 00:50:55;;;;;;;8.17;3.50;;;;;;;19.48;82.14;99501.38;1473681;88;21419;-80
2023/08/03 00:53:21;;;;;;;6.45;2.20;;;;;;;19.46;82.53;99495.44;1475528;88;21486;-79
2023/08/03 00:55:48;;;;;;;5.20;2.92;;;;;;;19.43;82.51;99495.91;1471156;88;22373;-79
2023/08/03 00:58:14;;;;;;;3.10;2.30;;;;;;;19.44;82.62;99492.97;1474852;88;21505;-80
2023/08/03 01:00:40;;;;;;;7.12;2.80;;;;;;;19.43;82.63;99497.24;1473597;88;21492;-79
2023/08/03 01:03:06;;;;;;;4.67;2.75;;;;;;;19.40;82.58;99494.48;1471112;88;21504;-79
2023/08/03 01:05:33;;;;;;;4.33;2.80;;;;;;;19.32;83.74;99492.94;1473972;88;21382;-79
2023/08/03 01:08:00;;;;;;;9.27;3.07;;;;;;;19.27;83.77;99494.12;1476676;88;21434;-79
2023/08/03 01:10:28;;;;;;;8.17;2.40;;;;;;;19.24;84.33;99494.59;1469886;88;21478;-79
2023/08/03 01:12:56;;;;;;;10.80;2.50;;;;;;;19.22;84.33;99504.75;1469621;88;21582;-79
2023/08/03 01:15:23;;;;;;;3.77;2.60;;;;;;;19.20;84.10;99494.75;1472870;88;22476;-79
2023/08/03 01:17:49;;;;;;;3.97;2.60;;;;;;;19.15;84.24;99501.31;1471901;88;21411;-80
2023/08/03 01:20:20;;;;;;;8.50;4.00;;;;;;;19.09;84.75;99503.56;1471058;88;21464;-80
2023/08/03 01:22:47;;;;;;;11.07;2.67;;;;;;;19.07;85.29;99501.62;1466012;88;21301;-79
2023/08/03 01:25:13;;;;;;;4.70;2.30;;;;;;;19.07;85.72;99502.96;1472952;88;22328;-78
2023/08/03 01:27:40;;;;;;;7.17;2.13;;;;;;;19.08;86.12;99503.27;1475043;88;21603;-78
2023/08/03 01:30:07;;;;;;;6.10;2.53;;;;;;;19.08;86.70;99503.27;1473733;88;21345;-78
2023/08/03 01:32:34;;;;;;;4.33;2.93;;;;;;;19.09;86.55;99500.88;1476483;88;22823;-78
2023/08/03 01:35:00;;;;;;;3.63;3.00;;;;;;;19.10;86.52;99505.19;1473189;88;21405;-79
2023/08/03 01:37:26;;;;;;;5.80;2.00;;;;;;;19.09;86.37;99506.24;1464504;88;21405;-79
2023/08/03 01:39:53;;;;;;;3.53;2.27;;;;;;;19.06;86.81;99512.06;1469897;88;21405;-79
2023/08/03 01:42:19;;;;;;;6.23;2.10;;;;;;;19.02;86.74;99513.53;1470919;88;21846;-79
2023/08/03 01:44:46;;;;;;;5.20;2.13;;;;;;;19.00;87.25;99512.96;1477245;88;21464;-80
2023/08/03 01:47:12;;;;;;;4.47;2.53;;;;;;;18.99;87.37;99507.28;1473753;88;21368;-79
2023/08/03 01:49:38;;;;;;;5.10;2.33;;;;;;;18.99;87.50;99507.28;1473873;88;21390;-78
2023/08/03 01:52:04;;;;;;;7.97;3.50;;;;;;;18.98;87.81;99511.02;1477996;88;21359;-79
2023/08/03 01:54:31;;;;;;;2.53;2.23;;;;;;;18.98;87.90;99513.70;1469872;88;21560;-78
2023/08/03 01:56:57;;;;;;;5.73;2.50;;;;;;;18.95;88.01;99513.63;1477329;88;22455;-80
2023/08/03 01:59:23;;;;;;;2.90;2.10;;;;;;;18.95;87.93;99514.97;1446756;88;22328;-80
2023/08/03 02:01:49;;;;;;;5.07;3.03;;;;;;;18.94;87.90;99507.98;1464146;88;21435;-79
2023/08/03 02:04:15;;;;;;;3.50;2.47;;;;;;;18.92;87.84;99508.72;1474683;88;21537;-79
2023/08/03 02:06:49;;;;;;;5.20;3.07;;;;;;;18.89;88.40;99511.31;1476641;88;21375;-79
2023/08/03 02:09:16;;;;;;;5.13;2.03;;;;;;;18.88;88.58;99518.27;1475054;88;21316;-80
2023/08/03 02:11:43;;;;;;;5.47;3.30;;;;;;;18.86;88.89;99517.66;1472146;88;21316;-79
2023/08/03 02:14:09;;;;;;;4.20;2.53;;;;;;;18.84;89.29;99515.19;1477945;88;21478;-79
2023/08/03 02:16:35;;;;;;;4.83;2.43;;;;;;;18.82;89.22;99510.59;1478779;88;21382;-79
2023/08/03 02:19:01;;;;;;;10.40;2.37;;;;;;;18.78;89.21;99509.38;1478221;88;21368;-79
2023/08/03 02:21:27;;;;;;;4.60;2.70;;;;;;;18.75;89.21;99509.83;1468934;88;22890;-79
2023/08/03 02:23:54;;;;;;;8.37;3.07;;;;;;;18.72;89.47;99514.27;1473935;88;21404;-79
2023/08/03 02:26:20;;;;;;;4.07;2.53;;;;;;;18.69;90.10;99512.03;1476248;88;21389;-78
2023/08/03 02:28:46;;;;;;;4.83;2.40;;;;;;;18.68;91.20;99517.92;1475308;88;21501;-79
2023/08/03 02:31:13;;;;;;;3.97;2.63;;;;;;;18.66;93.31;99518.66;1473776;88;21293;-79
2023/08/03 02:33:39;;;;;;;4.10;2.60;;;;;;;18.65;93.12;99522.39;1473878;88;22998;-79
2023/08/03 02:36:05;;;;;;;4.80;2.70;;;;;;;18.67;92.81;99526.16;1473926;88;21360;-79
2023/08/03 02:38:31;;;;;;;6.20;2.60;;;;;;;18.65;93.10;99525.06;1463035;88;21455;-80
2023/08/03 02:41:00;;;;;;;5.87;2.60;;;;;;;18.60;92.97;99522.75;1452823;88;21442;-79
2023/08/03 02:43:27;;;;;;;6.40;2.33;;;;;;;18.57;93.40;99524.02;1469570;88;21516;-81
2023/08/03 02:45:54;;;;;;;7.10;2.77;;;;;;;18.53;93.88;99524.17;1460794;88;22313;-79
2023/08/03 02:48:20;;;;;;;4.80;2.80;;;;;;;18.51;94.12;99528.92;1471331;88;22004;-79
2023/08/03 02:50:46;;;;;;;5.17;3.20;;;;;;;18.51;94.60;99526.77;1476395;88;21368;-79
2023/08/03 02:53:12;;;;;;;4.47;2.80;;;;;;;18.52;94.68;99531.07;1478934;88;21330;-79
2023/08/03 02:55:39;;;;;;;3.43;2.40;;;;;;;18.52;94.59;99531.07;1455714;88;21539;-79
2023/08/03 02:58:05;;;;;;;4.20;2.30;;;;;;;18.51;94.54;99530.78;1477043;88;21427;-78
2023/08/03 03:00:32;;;;;;;4.37;2.60;;;;;;;18.52;94.61;99526.53;1475022;88;21435;-78
2023/08/03 03:02:58;;;;;;;9.20;3.10;;;;;;;18.48;94.52;99528.84;1469851;88;21382;-80
2023/08/03 03:05:24;;;;;;;3.57;2.83;;;;;;;18.47;94.98;99532.56;1461541;88;21374;-79
2023/08/03 03:07:50;;;;;;;2.20;1.73;;;;;;;18.45;95.74;99528.47;1474830;88;21560;-79
2023/08/03 03:10:17;;;;;;;6.37;2.57;;;;;;;18.47;96.23;99533.91;1471389;88;22292;-79
2023/08/03 03:12:43;;;;;;;3.50;2.37;;;;;;;18.51;96.10;99534.80;1477756;88;21398;-80
2023/08/03 03:15:10;;;;;;;2.90;2.40;;;;;;;18.51;95.84;99526.24;1467702;88;22372;-79
2023/08/03 03:17:38;;;;;;;4.80;2.67;;;;;;;18.51;95.73;99526.24;1479592;88;21429;-79
2023/08/03 03:20:05;;;;;;;3.50;2.40;;;;;;;18.49;95.59;99538.50;1476341;88;21574;-79
2023/08/03 03:22:31;;;;;;;3.00;2.40;;;;;;;18.47;95.91;99535.25;1477543;88;21577;-79
2023/08/03 03:24:57;;;;;;;5.73;2.50;;;;;;;18.45;95.79;99533.83;1478870;88;21390;-79
2023/08/03 03:27:24;;;;;;;3.17;2.23;;;;;;;18.44;96.29;99533.02;1468660;88;21589;-79
2023/08/03 03:29:50;;;;;;;3.67;2.17;;;;;;;18.44;96.35;99531.67;1477189;88;22306;-79
2023/08/03 03:32:16;;;;;;;2.67;1.97;;;;;;;18.46;96.43;99536.27;1475133;88;21345;-79
2023/08/03 03:34:42;;;;;;;14.77;2.90;;;;;;;18.47;96.38;99524.53;1478015;88;21323;-79
2023/08/03 03:37:08;;;;;;;4.83;2.03;;;;;;;18.48;96.37;99528.84;1467251;88;21478;-79
2023/08/03 03:39:35;;;;;;;4.17;2.17;;;;;;;18.49;96.42;99529.13;1471896;88;21530;-80
2023/08/03 03:42:01;;;;;;;4.60;2.43;;;;;;;18.51;96.33;99532.12;1473607;88;21447;-80
2023/08/03 03:44:27;;;;;;;3.70;2.43;;;;;;;18.52;96.64;99533.75;1475186;88;21427;-80
2023/08/03 03:46:53;;;;;;;3.27;2.07;;;;;;;18.52;96.90;99533.23;1475628;88;21499;-79
2023/08/03 03:49:20;;;;;;;3.47;2.60;;;;;;;18.57;97.12;99533.39;1472183;88;21339;-80
2023/08/03 03:51:46;;;;;;;6.60;2.50;;;;;;;18.62;97.19;99535.42;1471087;88;21448;-80
2023/08/03 03:54:12;;;;;;;6.50;2.80;;;;;;;18.66;96.92;99536.59;1472764;88;21427;-80
2023/08/03 03:56:38;;;;;;;5.97;2.30;;;;;;;18.68;96.67;99531.32;1477961;88;22894;-80
2023/08/03 03:59:04;;;;;;;4.03;2.70;;;;;;;18.70;96.84;99535.10;1460220;88;22307;-80
2023/08/03 04:01:30;;;;;;;5.00;2.40;;;;;;;18.70;97.32;99533.77;1473282;88;21523;-81
2023/08/03 04:03:57;;;;;;;7.40;2.60;;;;;;;18.72;96.91;99531.16;1479259;88;21397;-79
2023/08/03 04:06:23;;;;;;;8.83;2.90;;;;;;;18.75;97.22;99535.81;1470066;88;22313;-80
2023/08/03 04:08:49;;;;;;;3.83;2.20;;;;;;;18.77;97.43;99535.08;1473553;88;21317;-81
2023/08/03 04:11:16;;;;;;;8.80;2.80;;;;;;;18.79;97.50;99540.52;1473875;88;21345;-80
2023/08/03 04:13:42;;;;;;;6.37;2.10;;;;;;;18.87;97.57;99536.21;1483478;88;21404;-80
2023/08/03 04:16:08;;;;;;;3.30;2.30;;;;;;;18.94;97.43;99540.15;1477815;88;21623;-81
2023/08/03 04:18:35;;;;;;;2.87;2.07;;;;;;;19.01;97.12;99538.72;1471729;88;22166;-80
2023/08/03 04:21:02;;;;;;;3.25;2.08;;;;;;;19.06;96.95;99543.71;1468929;88;21396;-80
2023/08/03 04:23:28;;;;;;;2.53;2.07;;;;;;;19.11;96.75;99544.39;1479857;88;21382;-80
2023/08/03 04:25:54;;;;;;;4.62;2.58;;;;;;;19.15;96.57;99547.72;1479866;88;21589;-79
2023/08/03 04:28:20;;;;;;;3.45;2.10;;;;;;;19.21;96.74;99551.37;1472747;88;21532;-81
2023/08/03 04:30:46;;;;;;;4.85;2.35;;;;;;;19.28;96.71;99554.80;1479345;88;21648;-80
2023/08/03 04:33:12;;;;;;;6.22;3.02;;;;;;;19.35;96.74;99556.86;1475827;88;21442;-78
2023/08/03 04:35:40;;;;;;;3.58;2.25;;;;;;;19.45;96.48;99555.50;1475917;88;21537;-79
2023/08/03 04:38:06;;;;;;;3.17;2.15;;;;;;;19.57;96.18;99561.76;1470769;88;21449;-79
2023/08/03 04:40:32;;;;;;;4.80;3.12;;;;;;;19.66;95.69;99560.42;1476099;88;22497;-80
2023/08/03 04:42:58;;;;;;;2.98;2.45;;;;;;;19.76;95.33;99560.67;1477035;88;21448;-78
2023/08/03 04:45:24;;;;;;;7.05;2.47;;;;;;;19.80;95.09;99567.77;1470453;88;21360;-77
2023/08/03 04:47:50;;;;;;;7.58;2.85;;;;;;;19.88;94.77;99564.77;1475301;88;22217;-79
2023/08/03 04:50:19;;;;;;;3.37;2.33;;;;;;;19.94;94.77;99565.68;1471027;88;21411;-78
2023/08/03 04:52:45;;;;;;;3.98;2.27;;;;;;;20.03;94.79;99561.64;1478728;88;21567;-78
2023/08/03 04:55:11;;;;;;;3.85;2.17;;;;;;;20.15;94.34;99562.47;1471659;88;22254;-78
2023/08/03 04:57:37;;;;;;;8.05;2.65;;;;;;;20.31;94.42;99570.89;1478228;88;21530;-78
2023/08/03 05:00:05;;;;;;;6.30;2.62;;;;;;;20.43;93.98;99569.05;1477414;88;21361;-80
2023/08/03 05:02:31;;;;;;;6.95;2.70;;;;;;;20.54;93.65;99569.59;1471705;88;21427;-79
2023/08/03 05:04:57;;;;;;;4.60;2.87;;;;;;;20.66;93.32;99569.08;1467769;88;21556;-78
2023/08/03 05:07:23;;;;;;;6.65;2.85;;;;;;;20.78;92.67;99570.95;1473360;88;21426;-79
2023/08/03 05:09:49;;;;;;;4.65;2.20;;;;;;;20.90;91.75;99569.05;1477728;88;21351;-80
2023/08/03 05:12:16;;;;;;;3.15;2.40;;;;;;;20.99;91.01;99571.67;1474044;88;21502;-79
2023/08/03 05:14:42;;;;;;;3.40;2.77;;;;;;;21.11;90.42;99575.14;1459469;88;22435;-78
2023/08/03 05:17:09;;;;;;;4.85;2.35;;;;;;;21.23;89.77;99578.34;1472294;88;21471;-78
2023/08/03 05:19:35;;;;;;;4.87;2.65;;;;;;;21.32;89.26;99564.80;1475853;88;21567;-79
2023/08/03 05:22:02;;;;;;;6.40;2.58;;;;;;;21.44;88.94;99562.12;1470551;88;22417;-79
2023/08/03 05:24:28;;;;;;;4.40;2.90;;;;;;;21.54;88.29;99572.53;1466886;88;21390;-78
2023/08/03 05:26:54;;;;;;;7.25;2.33;;;;;;;21.62;87.70;99570.80;1473186;88;22401;-77
2023/08/03 05:29:21;;;;;;;5.40;2.20;;;;;;;21.67;86.72;99567.94;1473887;88;21553;-81
2023/08/03 05:31:48;;;;;;;4.80;2.20;;;;;;;21.71;86.53;99567.73;1474995;88;21338;-78
2023/08/03 05:34:16;;;;;;;2.52;2.20;;;;;;;21.87;85.56;99550.80;1475237;88;22417;-78
2023/08/03 05:36:42;;;;;;;7.50;2.60;;;;;;;21.87;85.56;99550.80;1475252;88;21419;-76
2023/08/03 05:39:08;;;;;;;9.68;2.30;;;;;;;22.03;85.17;99559.41;1473051;88;21375;-77
2023/08/03 05:41:35;;;;;;;4.67;2.20;;;;;;;22.16;84.26;99558.81;1479314;88;21434;-77
2023/08/03 05:44:02;;;;;;;8.28;2.20;;;;;;;22.22;83.66;99567.30;1469021;88;21516;-78
2023/08/03 05:46:33;;;;;;;3.27;2.25;;;;;;;22.29;83.07;99561.20;1475984;88;21360;-76
2023/08/03 05:48:59;;;;;;;3.20;2.52;;;;;;;22.39;83.04;99568.11;1473166;88;21309;-76
2023/08/03 05:51:27;;;;;;;2.90;2.12;;;;;;;22.50;82.40;99565.86;1477459;88;21390;-76
2023/08/03 05:53:55;;;;;;;3.40;2.25;;;;;;;22.57;82.14;99570.26;1474449;88;21512;-77
2023/08/03 05:56:22;;;;;;;6.28;2.10;;;;;;;22.64;81.84;99566.34;1475988;88;22195;-78
2023/08/03 05:58:50;;;;;;;5.65;2.42;;;;;;;22.74;81.11;99562.95;1479442;88;21360;-78
2023/08/03 06:01:21;;;;;;;6.40;2.67;;;;;;;22.86;80.99;99563.66;1476149;88;21516;-79
2023/08/03 06:03:51;;;;;;;4.53;1.95;;;;;;;22.97;80.68;99562.76;1481341;88;21361;-79
2023/08/03 06:06:20;;;;;;;2.58;2.20;;;;;;;23.07;79.63;99560.71;1470404;88;21539;-77
2023/08/03 06:08:51;;;;;;;6.78;2.20;;;;;;;23.18;79.42;99561.66;1475894;88;21470;-78
2023/08/03 06:11:20;;;;;;;4.20;2.37;;;;;;;23.30;79.46;99562.34;1478176;88;21669;-79
2023/08/03 06:13:48;;;;;;;2.83;2.00;;;;;;;23.39;78.34;99564.91;1459666;88;21419;-78
2023/08/03 06:16:16;;;;;;;2.33;2.12;;;;;;;23.48;77.38;99572.02;1475083;88;21352;-79
2023/08/03 06:18:54;;;;;;;5.10;2.02;;;;;;;23.58;76.79;99571.30;1472339;88;21360;-79
2023/08/03 06:21:23;;;;;;;2.52;2.08;;;;;;;23.68;76.32;99566.53;1478459;88;21338;-83
2023/08/03 06:23:53;;;;;;;4.62;2.05;;;;;;;23.77;74.98;99564.52;1470556;88;21550;-80
2023/08/03 06:26:21;;;;;;;;;;;;;;;23.85;74.43;99568.11;1476269;88;21397;-79
2023/08/03 06:28:53;;;;;;;3.15;2.02;;;;;;;23.94;73.50;99570.32;1446824;90;20450;-82
2023/08/03 06:31:21;;;;;;;3.72;2.17;;;;;;;24.08;73.61;99574.23;1471661;88;21374;-79
2023/08/03 06:33:47;;;;;;;6.85;1.87;;;;;;;24.23;72.30;99571.68;1459511;88;22425;-80
2023/08/03 06:36:21;;;;;;;6.53;2.17;;;;;;;24.43;71.21;99569.70;1476119;88;21797;-81
2023/08/03 06:38:48;;;;;;;6.70;2.30;;;;;;;24.68;70.80;99568.22;1468085;88;22587;-80
2023/08/03 06:41:14;;;;;;;4.53;1.80;;;;;;;24.84;69.44;99566.44;1473550;88;21397;-79
2023/08/03 06:43:40;;;;;;;3.15;1.70;;;;;;;24.92;68.18;99568.64;1469390;88;22151;-79
2023/08/03 06:46:07;;;;;;;2.85;1.50;;;;;;;24.96;67.11;99568.38;1477209;88;21482;-79
2023/08/03 06:48:33;;;;;;;3.35;1.62;;;;;;;24.97;66.25;99567.30;1469168;88;21427;-78
2023/08/03 06:51:03;;;;;;;3.55;1.92;;;;;;;24.94;66.01;99565.11;1476704;88;22140;-79
2023/08/03 06:53:31;;;;;;;2.00;1.57;;;;;;;24.94;66.05;99565.11;1474000;88;21515;-80
2023/08/03 06:55:57;;;;;;;3.35;1.77;;;;;;;24.93;65.87;99562.14;1463520;88;22299;-80
2023/08/03 06:58:24;;;;;;;3.40;1.92;;;;;;;24.95;65.77;99564.06;1470826;88;21441;-80
2023/08/03 07:00:50;;;;;;;2.02;1.55;;;;;;;24.94;65.37;99571.88;1453581;88;21462;-79
2023/08/03 07:03:16;;;;;;;3.25;1.47;;;;;;;24.97;65.56;99568.64;1471426;88;21468;-81
2023/08/03 07:05:43;;;;;;;3.37;1.92;;;;;;;25.06;65.24;99567.09;1475397;88;21387;-79
2023/08/03 07:08:09;;;;;;;2.65;1.60;;;;;;;25.12;65.05;99575.50;1468608;88;22343;-80
2023/08/03 07:10:37;;;;;;;2.87;1.72;;;;;;;25.11;64.70;99576.56;1477006;88;22456;-79
2023/08/03 07:13:04;;;;;;;2.92;1.98;;;;;;;25.08;64.62;99574.93;1475358;88;21405;-79
2023/08/03 07:15:34;;;;;;;3.85;2.30;;;;;;;25.12;64.69;99576.86;1397280;88;22183;-79
2023/08/03 07:18:06;;;;;;;2.60;1.25;;;;;;;25.15;63.82;99568.78;1402703;88;22146;-79
2023/08/03 07:20:34;;;;;;;5.83;1.80;;;;;;;25.21;63.58;99567.17;1397550;88;21250;-80
2023/08/03 07:23:00;;;;;;;9.10;2.05;;;;;;;25.34;63.86;99555.02;1396140;88;21391;-79
2023/08/03 07:25:26;;;;;;;3.98;2.02;;;;;;;25.42;63.87;99550.98;1398537;88;22086;-79
2023/08/03 07:27:54;;;;;;;5.15;1.90;;;;;;;25.56;63.83;99554.81;1398779;88;21295;-79
2023/08/03 07:30:20;;;;;;;2.05;1.45;;;;;;;25.61;62.34;99549.42;1397896;88;21398;-80
2023/08/03 07:32:47;;;;;;;5.92;2.20;;;;;;;25.70;61.49;99555.67;1398273;88;21243;-81
2023/08/03 07:35:14;;;;;;;6.95;2.22;;;;;;;25.79;60.50;99555.41;1397895;88;21243;-79
2023/08/03 07:37:40;;;;;;;5.35;2.20;;;;;;;25.77;61.20;99554.30;1398363;88;21391;-79
2023/08/03 07:40:07;;;;;;;2.52;1.72;;;;;;;25.79;60.95;99551.34;1404471;88;21355;-80
2023/08/03 07:42:33;;;;;;;7.78;1.87;;;;;;;25.77;61.02;99556.20;1403597;88;21302;-80
2023/08/03 07:45:01;;;;;;;4.70;1.72;;;;;;;25.75;60.70;99554.30;1399043;88;21413;-80
2023/08/03 07:47:27;;;;;;;3.50;1.75;;;;;;;25.82;60.21;99546.22;1397415;88;21323;-81
2023/08/03 07:49:56;;;;;;;2.17;1.60;;;;;;;25.94;60.24;99556.80;1404732;88;21235;-80
2023/08/03 07:52:22;;;;;;;5.47;3.00;;;;;;;26.03;60.77;99552.46;1559149;88;21153;-80
2023/08/03 07:54:48;;;;;;;2.95;1.90;;;;;;;26.15;59.89;99548.66;1398561;88;21250;-80
2023/08/03 07:57:15;;;;;;;4.15;2.22;;;;;;;26.25;59.66;99545.41;1475903;88;21463;-81
2023/08/03 07:59:48;;;;;;;7.83;2.70;;;;;;;26.35;58.88;99543.22;1473748;88;21523;-81
2023/08/03 08:02:15;;;;;;;5.28;2.00;;;;;;;26.49;58.60;99544.29;1474080;88;21640;-80
2023/08/03 08:04:41;;;;;;;10.55;2.42;;;;;;;26.60;58.12;99543.77;1471969;88;21413;-81
2023/08/03 08:07:07;;;;;;;3.30;1.92;;;;;;;26.70;57.67;99545.63;1476345;88;21462;-83
2023/08/03 08:09:33;;;;;;;2.98;2.58;;;;;;;26.80;57.45;99542.90;1396848;88;21390;-83
2023/08/03 08:11:59;;;;;;;6.58;2.45;;;;;;;26.88;57.09;99545.05;1399086;88;21354;-84
2023/08/03 08:14:26;;;;;;;5.90;2.52;;;;;;;26.90;56.69;99542.88;1406970;88;21331;-82
2023/08/03 08:16:52;;;;;;;2.60;2.40;;;;;;;26.93;56.60;99541.48;1398714;88;21243;-83
2023/08/03 08:19:19;;;;;;;2.87;2.00;;;;;;;26.96;56.12;99547.20;1400712;88;22130;-83
2023/08/03 08:21:45;;;;;;;4.70;2.33;;;;;;;27.04;56.60;99544.43;1398704;88;21390;-84
2023/08/03 08:24:16;;;;;;;6.15;2.35;;;;;;;27.11;56.75;99540.08;1405584;88;22175;-81
2023/08/03 08:26:44;;;;;;;4.47;2.35;;;;;;;27.20;55.43;99542.50;1471846;88;21412;-84
2023/08/03 08:29:11;;;;;;;6.47;2.30;;;;;;;27.31;56.21;99540.01;1473227;88;21338;-84
2023/08/03 08:31:37;;;;;;;3.00;2.02;;;;;;;27.43;55.58;99530.97;1465495;88;22393;-84
2023/08/03 08:34:03;;;;;;;5.33;2.10;;;;;;;27.57;54.60;99534.43;1467981;88;21412;-84
2023/08/03 08:36:29;;;;;;;3.52;2.90;;;;;;;27.65;52.84;99531.92;1474004;88;21441;-82
2023/08/03 08:38:55;;;;;;;5.25;2.35;;;;;;;27.73;53.21;99534.57;1481202;88;21552;-85
2023/08/03 08:41:22;;;;;;;3.02;2.27;;;;;;;27.89;52.43;99532.59;1470085;88;21442;-82
2023/08/03 08:43:48;;;;;;;3.05;2.72;;;;;;;28.11;52.83;99536.23;1476090;88;21389;-82
2023/08/03 08:50:14;;;;;;;3.05;2.77;;;;;;;28.15;52.51;99528.30;1559041;88;21191;-83
2023/08/03 08:52:47;;;;;;;4.45;2.25;;;;;;;28.12;51.55;99532.41;1399326;88;22249;-82
2023/08/03 08:55:22;;;;;;;3.25;2.90;;;;;;;28.18;51.66;99531.27;1397896;88;21413;-83
2023/08/03 08:57:48;;;;;;;3.72;3.00;;;;;;;28.27;51.55;99529.53;1401790;88;21426;-82
2023/08/03 09:00:17;;;;;;;6.05;2.42;;;;;;;28.32;51.45;99527.33;1553964;88;21302;-84
2023/08/03 09:02:44;;;;;;;3.92;2.80;;;;;;;28.39;51.09;99539.23;1398004;88;21227;-83
2023/08/03 09:05:19;;;;;;;3.37;3.08;;;;;;;28.39;51.15;99535.15;1401134;88;22249;-84
2023/08/03 09:08:08;;;;;;;5.62;3.42;;;;;;;28.42;50.87;99544.13;1460723;88;21412;-83
2023/08/03 09:10:54;;;;;;;7.17;2.60;;;;;;;28.45;50.65;99537.55;1397667;88;21338;-84
2023/08/03 09:13:35;;;;;;;3.77;2.87;;;;;;;28.51;50.36;99539.67;1419507;88;21397;-83
2023/08/03 09:16:02;;;;;;;8.35;2.87;;;;;;;28.57;49.94;99533.11;1474995;88;22270;-84
2023/08/03 09:18:31;;;;;;;3.92;2.62;;;;;;;28.67;50.53;99533.53;1475098;88;21523;-83
2023/08/03 09:21:14;;;;;;;2.90;2.35;;;;;;;28.74;50.55;99537.55;1401490;88;21340;-86
2023/08/03 09:23:40;;;;;;;5.30;2.40;;;;;;;28.85;51.10;99536.05;1541347;88;21265;-84
2023/08/03 09:26:07;;;;;;;2.80;2.50;;;;;;;28.96;50.45;99532.10;1398278;88;21324;-85
2023/08/03 09:28:37;;;;;;;4.42;2.87;;;;;;;29.07;50.83;99526.82;1398714;88;21279;-85
2023/08/03 09:31:05;;;;;;;11.55;3.10;;;;;;;29.22;50.30;99532.06;1402266;88;21317;-84
2023/08/03 09:33:32;;;;;;;4.92;2.85;;;;;;;29.30;50.46;99527.08;1554570;88;22359;-85
2023/08/03 09:36:14;;;;;;;6.37;3.25;;;;;;;29.44;50.15;99528.77;1396683;88;21250;-85
2023/08/03 09:38:41;;;;;;;5.33;2.90;;;;;;;29.51;49.40;99535.20;1558499;88;21235;-86
2023/08/03 09:41:38;;;;;;;6.22;3.25;;;;;;;29.60;48.81;99533.98;1397484;88;21206;-86
2023/08/03 09:44:07;;;;;;;4.85;3.08;;;;;;;29.72;49.56;99537.66;1535689;88;21287;-84
2023/08/03 09:46:34;;;;;;;4.53;3.00;;;;;;;29.78;48.57;99536.47;1398497;88;21258;-86
2023/08/03 09:49:01;;;;;;;3.05;2.67;;;;;;;29.75;48.14;99535.17;1414495;88;22521;-86
2023/08/03 09:51:33;;;;;;;5.35;3.05;;;;;;;29.84;49.21;99535.30;1475724;88;21391;-85
2023/08/03 09:54:19;;;;;;;4.70;2.62;;;;;;;29.94;49.04;99535.13;1427474;88;21427;-83
2023/08/03 09:56:52;;;;;;;5.25;3.58;;;;;;;29.95;48.04;99534.01;1396198;89;21243;-82
2023/08/03 09:59:22;;;;;;;7.42;3.47;;;;;;;29.98;48.49;99533.44;1460618;88;21647;-85
2023/08/03 10:01:51;;;;;;;6.45;3.30;;;;;;;30.08;47.94;99530.52;1474183;88;21508;-86
2023/08/03 10:04:18;;;;;;;7.77;3.27;;;;;;;30.18;48.29;99531.45;1477238;88;21412;-87
2023/08/03 10:06:46;;;;;;;6.10;3.83;;;;;;;30.23;47.11;99528.11;1476311;88;22735;-87
2023/08/03 10:09:16;;;;;;;5.65;3.08;;;;;;;30.26;48.07;99530.80;1475229;88;21471;-86
2023/08/03 10:11:47;;;;;;;4.35;3.47;;;;;;;30.32;47.67;99530.96;1470108;88;22373;-88
2023/08/03 10:18:21;;;;;;;5.28;3.60;;;;;;;30.52;47.47;99521.59;1470305;88;21478;-88
2023/08/03 10:20:48;;;;;;;8.95;3.58;;;;;;;30.62;47.38;99520.05;1475410;88;21404;-87
2023/08/03 10:23:24;;;;;;;6.70;3.65;;;;;;;30.70;47.19;99525.33;1477772;88;21425;-87
2023/08/03 10:33:11;;;;;;;6.80;3.75;;;;;;;30.75;46.31;99517.84;1482085;88;21353;-87
2023/08/03 10:35:40;;;;;;;4.70;3.75;;;;;;;30.34;47.39;99500.89;1476192;88;21574;-88
2023/08/03 10:38:22;;;;;;;7.22;3.87;;;;;;;30.41;48.11;99492.30;1475937;88;21619;-87
2023/08/03 10:40:48;;;;;;;10.60;3.40;;;;;;;30.53;47.25;99487.17;1481996;88;21493;-86
2023/08/03 10:43:15;;;;;;;5.62;3.60;;;;;;;30.58;47.73;99488.97;1467325;88;21510;-85
2023/08/03 10:45:42;;;;;;;4.70;3.83;;;;;;;30.76;48.42;99482.62;1475849;88;21448;-84
2023/08/03 10:48:37;;;;;;;7.28;4.17;;;;;;;30.96;47.93;99486.88;1474709;88;21434;-86
2023/08/03 10:51:04;;;;;;;8.63;3.92;;;;;;;31.03;46.74;99483.16;1471068;88;21323;-84
2023/08/03 10:53:30;;;;;;;7.75;4.08;;;;;;;31.18;47.28;99485.30;1476729;88;21419;-84
2023/08/03 10:56:10;;;;;;;7.33;3.52;;;;;;;31.28;46.91;99489.19;1475906;88;22431;-85
2023/08/03 10:58:50;;;;;;;;;;;;;;;31.34;46.55;99487.95;1475496;88;21447;-85
2023/08/03 11:01:24;;;;;;;13.00;3.95;;;;;;;31.10;45.59;99488.76;1449015;90;20420;-85
2023/08/03 11:03:50;;;;;;;9.40;4.10;;;;;;;31.19;46.96;99478.74;1445704;90;21376;-86
2023/08/03 11:06:18;;;;;;;9.60;3.58;;;;;;;31.47;46.42;99469.34;1478349;88;21516;-84
2023/08/03 11:08:45;;;;;;;9.08;4.15;;;;;;;31.76;45.91;99479.04;1475932;88;22417;-86
2023/08/03 11:11:16;;;;;;;14.00;3.87;;;;;;;32.01;44.76;99483.66;1476218;88;22919;-85
2023/08/03 11:13:45;;;;;;;5.65;4.00;;;;;;;32.20;43.42;99466.47;1473977;88;21367;-87
2023/08/03 11:16:15;;;;;;;11.85;3.72;;;;;;;32.30;44.06;99468.11;1475659;88;21427;-86
2023/08/03 11:18:48;;;;;;;8.45;4.15;;;;;;;32.12;43.25;99469.40;1474687;88;21420;-86
2023/08/03 11:21:17;;;;;;;7.92;4.25;;;;;;;31.94;44.34;99469.60;1472525;88;22431;-86
2023/08/03 11:23:43;;;;;;;7.67;3.70;;;;;;;31.69;44.23;99477.31;1475581;88;21624;-86
2023/08/03 11:26:10;;;;;;;7.20;4.42;;;;;;;31.46;44.82;99465.56;1479853;88;21518;-86
2023/08/03 11:28:44;;;;;;;4.78;3.85;;;;;;;31.30;45.29;99463.70;1469701;88;21441;-84
2023/08/03 11:31:21;;;;;;;7.20;3.60;;;;;;;31.22;46.06;99464.45;1403715;88;22152;-86
2023/08/03 11:33:51;;;;;;;10.25;3.90;;;;;;;31.21;46.24;99464.19;1489865;88;21353;-87
2023/08/03 11:36:19;;;;;;;6.85;3.72;;;;;;;31.34;46.44;99459.25;1554886;88;21353;-85
2023/08/03 11:38:45;;;;;;;9.53;4.05;;;;;;;31.27;45.80;99461.59;1560914;88;21264;-86
2023/08/03 11:41:14;;;;;;;11.20;4.05;;;;;;;31.23;45.71;99471.53;1416741;88;22285;-86
2023/08/03 11:43:41;;;;;;;4.45;3.80;;;;;;;31.22;46.14;99461.73;1473335;88;21493;-86
2023/08/03 11:46:07;;;;;;;9.00;3.90;;;;;;;31.28;46.31;99456.39;1470339;88;21456;-86
2023/08/03 11:48:34;;;;;;;6.28;3.80;;;;;;;31.26;45.94;99462.72;1475925;88;21633;-86
2023/08/03 11:51:01;;;;;;;15.18;4.10;;;;;;;31.06;45.29;99459.88;1473709;88;21383;-88
2023/08/03 11:53:29;;;;;;;5.97;3.52;;;;;;;30.93;45.57;99467.00;1473307;88;21471;-87